EDT,Max TemperatureF,Mean TemperatureF,Min TemperatureF,Max Dew PointF,MeanDew PointF,Min DewpointF,Max Humidity, Mean Humidity, Min Humidity, Max Sea Level PressureIn, Mean Sea Level PressureIn, Min Sea Level PressureIn, Max VisibilityMiles, Mean VisibilityMiles, Min VisibilityMiles, Max Wind SpeedMPH, Mean Wind SpeedMPH, Max Gust SpeedMPH,PrecipitationIn, CloudCover, Events, WindDirDegrees
2013-8-1,82,73,63,72,68,63,99,86,58,30.06,30.02,29.97,10,9,2,12,1,20,0.00,5,Rain,16
2013-8-2,83,70,58,69,64,58,100,82,48,30.11,30.06,30.02,10,8,0,8,1,,0.00,2,Fog,256
2013-8-3,80,70,61,71,66,60,100,86,62,30.11,30.09,30.05,10,8,4,9,1,,0.00,2,,240
2013-8-4,83,72,62,69,64,59,100,80,50,30.12,30.09,30.05,10,7,0,15,2,22,0.00,3,Fog,11
2013-8-5,83,70,57,68,62,57,99,80,47,30.13,30.08,30.03,10,8,4,8,1,,0.00,3,,244
2013-8-6,80,72,64,73,67,63,98,85,64,30.08,30.05,30.03,10,10,7,6,1,,0.00,6,Rain,226
2013-8-7,80,74,68,73,70,68,99,92,76,30.11,30.07,30.04,10,8,2,7,1,,0.01,7,Rain,248
2013-8-8,81,74,68,72,70,68,100,90,70,30.12,30.09,30.06,10,8,2,9,1,,0.00,6,Rain,259
2013-8-9,84,76,67,73,70,67,100,90,64,30.17,30.12,30.08,10,9,2,10,1,,0.01,5,Rain,270
2013-8-10,82,75,68,73,71,68,100,94,73,30.20,30.17,30.15,10,8,0,9,1,,0.01,6,Rain,54
2013-8-11,80,72,65,74,69,65,100,91,73,30.23,30.19,30.14,10,8,0,7,1,9,0.00,5,Fog-Rain,256
2013-8-12,80,73,66,74,70,66,100,93,77,30.18,30.13,30.06,10,7,0,10,1,16,0.00,5,Fog-Rain,337
2013-8-13,82,74,67,71,69,66,100,90,65,30.07,30.00,29.93,10,8,2,9,1,,0.00,6,Rain,250
2013-8-14,78,70,63,66,64,59,100,84,52,30.09,30.01,29.97,10,7,0,8,1,,0.00,4,Fog,360
2013-8-15,76,68,59,65,62,57,99,82,57,30.14,30.09,30.07,10,9,3,8,2,,0.01,5,,239
2013-8-16,73,65,57,66,60,56,99,87,63,30.16,30.12,30.08,10,8,0,8,1,,0.00,6,Fog-Rain,253
2013-8-17,70,64,59,64,61,58,100,90,73,30.18,30.15,30.12,10,9,3,8,1,,0.00,7,Rain,267
2013-8-18,73,68,63,68,65,63,100,94,73,30.24,30.20,30.15,10,9,3,8,1,,0.00,7,Rain,259
2013-8-19,76,70,63,71,67,64,100,93,77,30.22,30.17,30.12,10,9,3,7,0,,0.01,8,Rain,292
2013-8-20,81,72,62,72,67,62,100,88,63,30.24,30.19,30.16,10,9,0,6,1,,0.00,5,Fog,248
2013-8-21,72,68,64,69,67,64,100,95,84,30.29,30.24,30.19,10,9,5,8,0,,0.00,6,Rain,300
2013-8-22,82,72,62,72,67,63,100,91,63,30.25,30.19,30.12,10,9,0,8,1,,0.00,5,Fog-Rain,268
2013-8-23,82,72,62,72,67,63,100,89,63,30.15,30.11,30.05,10,6,0,10,2,,0.00,4,Fog,272
2013-8-24,83,70,58,70,65,58,100,84,53,30.32,30.21,30.13,10,8,2,10,1,,0.00,3,,249
2013-8-25,80,67,54,66,61,54,99,81,54,30.42,30.35,30.29,10,10,7,7,1,,0.00,2,,258
2013-8-26,80,69,58,66,62,58,99,84,55,30.38,30.30,30.20,10,8,0,8,1,,0.00,5,Fog,295
2013-8-27,81,69,57,69,63,57,100,86,58,30.23,30.17,30.09,10,6,0,9,1,,0.00,4,Fog,27
2013-8-28,85,73,61,72,66,61,100,86,56,30.14,30.09,30.04,10,6,0,9,1,,0.00,3,Fog,285
2013-8-29,84,73,62,73,67,62,100,89,63,30.09,30.05,30.00,10,6,0,7,0,,0.00,4,Fog,28
2013-8-30,84,73,62,75,69,63,100,91,63,30.09,30.04,29.99,10,5,0,8,1,,0.01,5,Fog-Rain,282
2013-8-31,84,76,68,73,70,67,100,89,63,30.05,30.00,29.93,10,6,0,10,1,,0.01,5,Fog-Rain,321